Strona główna
METAR-TAF:

METAR-TAF

Lotnisko :

Greenville, Maine, Stany Zjednoczone

Szerokość geograficzna: 45-28N, Długość geograficzna: 069-35W, wysokość: 427 m

Aktualna obserwacja pogody

Raport powstał 1 godzina i 1 minut temu, godzina 14:56 UTC
Wiatr 4 kt od południowo-południowy wschód
Temperatura -7°C
Wilgotność 79%
Ciśnienie 999 hPa

METAR: KGNR 221456Z AUTO 15004KT M07/M10 A2951 RMK AO1 SLP021 T10721100 51012

czas: 10:57 (15:57 UTC)


TAF: brakujący

Obserwacja i prognoza pogody dla ponad 4000 lotnisk (raport METAR i TAF).

Dostępne stacje oznaczono żółtymi i czerwonymi punktami na mapie.

Najedź kursorem aby zobaczyć nazwę stacji.

Kliknij aby zobaczyć obserwacje i prognozy pogody.

Aby zmienić mapę: kliknij na zielony przycisk z czarnym krzyżykiem, aby powiększyć; na zielony przycisk z myślnikiem, aby pomniejszyć; na zielone strzałki, aby przejść do map sąsiednich.


METAR-TAF: